Game Details

[ Leader Board ] [ Players ] [ Opponents ] [ Guilds ] [ Areas ]

Game Details for: ChuckieB

Game Progress

Quest Completed on Day
Ackeron Savior 85
Earth Savior 85
Plasma Cube 81
Rescue Annie 80
Arena 5 67
Xornium 55
Pulse Matrix 53
Arena 4 52
Lab Power 46
Old Lab 44
Trader 4 40
Trader 6 40
Arena 3 31
Data Cubes 29
Chaak Mine 16
Insect Cave 16
Arena 1 11
Dave and Heidi 7
Mushroom Stew 5

Full Telemetry

Time Game Day Game Hour Game Minute Type Details Value Extra Zone X Y Credits Guild
6/30/2016 6:33:53 PM 85 15 51 Quest Ackeron Savior 1018 SpaceStation 5 37 32343 Smuggler
6/30/2016 6:28:42 PM 85 15 37 Equip Exquisite Psi Steel Cap 698 SpaceStation 32 18 31568 Smuggler
6/30/2016 6:28:37 PM 85 15 37 Equip Alien Psi Energy Field 808 SpaceStation 32 18 31568 Smuggler
6/30/2016 6:24:24 PM 85 15 37 Equip Aero Steel Cap 387 SpaceStation 32 18 31310 Smuggler
6/30/2016 6:24:16 PM 85 15 37 Equip Aero Inert D Field 622 SpaceStation 32 18 31310 Smuggler
6/30/2016 6:16:14 PM 85 11 51 Equip Exquisite Psi Steel Cap 698 SpaceStation 31 12 29974 Smuggler
6/30/2016 6:16:08 PM 85 11 51 Equip Alien Psi Energy Field 808 SpaceStation 31 12 29974 Smuggler
6/30/2016 6:15:50 PM 85 11 51 Equip Alien Combat Helmet 946 SpaceStation 31 12 29974 Smuggler
6/30/2016 5:24:39 PM 85 12 31 Quest Earth Savior 871 Wilderness6 16 10 27616 Smuggler
6/30/2016 3:05:55 PM 85 0 0 Daily ChuckieB 6470 Wilderness6 16 9 24693 Smuggler
6/30/2016 11:54:16 AM 84 0 42 Equip Aero Inert D Field 622 Wilderness6 4 7 18722 Smuggler
6/30/2016 11:54:06 AM 84 0 42 Equip Psi Cybernetic Suit 919 Wilderness6 4 7 18722 Smuggler
6/30/2016 5:32:06 AM 82 1 39 Equip Exquisite Combat Helmet 766 Base4 21 16 18774 Smuggler
6/30/2016 5:06:05 AM 81 17 12 Equip Aero Inert D Field 622 Village7 14 18 18444 Smuggler
6/30/2016 5:05:51 AM 81 17 12 Equip Aero Steel Cap 387 Village7 14 18 18444 Smuggler
6/30/2016 5:04:55 AM 81 17 12 Equip Tech Heavy Rapier 1056 Village7 14 18 17695 Smuggler
6/30/2016 5:04:47 AM 81 17 12 Equip Fine Cybernetic Suit 790 Village7 14 18 17695 Smuggler
6/30/2016 4:54:41 AM 81 10 57 Quest Plasma Cube 0 ScienceLab1 27 4 17564 Smuggler
6/30/2016 4:54:33 AM 81 10 57 Load 0 ScienceLab1 25 4 17564 Smuggler
6/30/2016 4:52:21 AM 81 10 57 Load 0 ScienceLab1 25 4 17564 Smuggler
6/30/2016 4:47:11 AM 81 10 58 Equip Tech Heavy Rapier 1056 ScienceLab1 27 4 17564 Smuggler
6/30/2016 4:46:36 AM 81 10 58 Equip Fine Cybernetic Suit 790 ScienceLab1 27 4 17564 Smuggler
6/29/2016 10:27:32 PM 81 10 58 Quest Plasma Cube 0 ScienceLab1 27 4 17564 Smuggler
6/29/2016 10:17:21 PM 81 0 0 Daily ChuckieB 6904 Base3 7 8 15009 Smuggler
6/29/2016 10:11:12 PM 80 23 29 Equip Tech Heavy Rapier 1056 Base3 16 8 14689 Smuggler
6/29/2016 9:50:12 PM 80 22 24 Quest Rescue Annie 0 Village10 4 12 5857 Smuggler
6/29/2016 5:05:27 PM 80 20 55 Equip Exquisite Shiny Energy Field 608 Base1 23 8 8402 Smuggler
6/29/2016 5:03:55 PM 80 20 49 Equip Alien Kinetic Field 525 Base1 12 15 8085 Smuggler
6/29/2016 4:57:20 PM 80 20 19 Quest Rescue Annie 0 Village10 4 12 5917 Smuggler
6/29/2016 4:56:27 PM 80 17 24 Equip Exquisite Combat Helmet 766 Wilderness5 25 7 5707 Smuggler